createdAt,value
2018-08-12T00:00:00.056Z,70.60
2018-08-12T00:01:03.829Z,70.30
2018-08-12T00:02:07.382Z,70.00
2018-08-12T00:03:10.819Z,70.00
2018-08-12T00:04:14.526Z,70.00
2018-08-12T00:05:18.380Z,70.20
2018-08-12T00:06:21.895Z,70.60
2018-08-12T00:07:28.043Z,69.90
2018-08-12T00:08:31.548Z,70.30
2018-08-12T00:09:35.110Z,69.60
2018-08-12T00:10:38.815Z,70.20
2018-08-12T00:11:42.526Z,69.60
2018-08-12T00:12:46.228Z,70.00
2018-08-12T00:13:50.760Z,69.30
2018-08-12T00:14:54.518Z,69.60
2018-08-12T00:15:58.132Z,69.80
2018-08-12T00:17:01.690Z,69.50
2018-08-12T00:18:06.383Z,69.50
2018-08-12T00:19:09.853Z,69.60
2018-08-12T00:20:16.104Z,69.90
2018-08-12T00:21:19.984Z,69.70
2018-08-12T00:22:23.431Z,69.90
2018-08-12T00:23:26.861Z,69.90
2018-08-12T00:24:30.295Z,69.80
2018-08-12T00:25:33.721Z,69.80
2018-08-12T00:26:37.097Z,70.20
2018-08-12T00:27:41.147Z,70.30
2018-08-12T00:28:44.671Z,70.80
2018-08-12T00:29:48.180Z,70.60
2018-08-12T00:30:52.074Z,70.50
2018-08-12T00:31:55.654Z,70.50
2018-08-12T00:33:00.175Z,70.60
2018-08-12T00:34:03.813Z,70.70
2018-08-12T00:35:11.374Z,70.90
2018-08-12T00:36:15.248Z,70.90
2018-08-12T00:37:18.617Z,70.90
2018-08-12T00:38:22.269Z,70.90
2018-08-12T00:39:25.989Z,70.90
2018-08-12T00:40:29.741Z,71.00
2018-08-12T00:41:33.645Z,71.20
2018-08-12T00:42:37.131Z,71.40
2018-08-12T00:43:40.792Z,71.60
2018-08-12T00:44:44.635Z,71.70
2018-08-12T00:45:48.078Z,71.60
2018-08-12T00:46:51.484Z,71.80
2018-08-12T00:47:54.916Z,72.10
2018-08-12T00:48:58.462Z,72.30
2018-08-12T00:50:02.070Z,72.70
2018-08-12T00:51:05.944Z,72.90
2018-08-12T00:52:09.683Z,73.00
2018-08-12T00:53:13.303Z,73.00
2018-08-12T00:54:16.633Z,73.10
2018-08-12T00:55:20.056Z,73.10
2018-08-12T00:56:23.536Z,73.90
2018-08-12T00:57:26.940Z,73.30
2018-08-12T00:58:30.478Z,73.50
2018-08-12T00:59:34.041Z,73.60
2018-08-12T01:00:37.760Z,73.50
2018-08-12T01:01:41.250Z,73.60
2018-08-12T01:02:44.803Z,73.50
2018-08-12T01:03:48.268Z,73.40
2018-08-12T01:04:51.776Z,73.40
2018-08-12T01:05:55.672Z,73.50
2018-08-12T01:06:59.170Z,73.40
2018-08-12T01:08:02.628Z,73.30
2018-08-12T01:09:12.281Z,73.60
2018-08-12T01:10:17.057Z,73.60
2018-08-12T01:11:20.820Z,73.80
2018-08-12T01:12:24.311Z,74.50
2018-08-12T01:13:27.854Z,73.90
2018-08-12T01:14:31.335Z,73.90
2018-08-12T01:15:34.984Z,73.90
2018-08-12T01:16:38.415Z,74.00
2018-08-12T01:17:42.284Z,74.10
2018-08-12T01:18:45.651Z,74.30
2018-08-12T01:19:49.141Z,73.90
2018-08-12T01:20:52.654Z,74.70
2018-08-12T01:21:56.441Z,74.80
2018-08-12T01:22:59.995Z,74.70
2018-08-12T01:24:03.670Z,74.90
2018-08-12T01:25:08.374Z,75.00
2018-08-12T01:26:11.823Z,75.00
2018-08-12T01:27:15.413Z,74.80
2018-08-12T01:28:19.604Z,74.90
2018-08-12T01:29:23.288Z,75.00
2018-08-12T01:30:27.099Z,75.00
2018-08-12T01:31:30.738Z,75.00
2018-08-12T01:32:34.558Z,75.30
2018-08-12T01:33:38.199Z,75.20
2018-08-12T01:34:41.668Z,75.20
2018-08-12T01:35:45.220Z,75.40
2018-08-12T01:36:48.809Z,75.50
2018-08-12T01:37:52.458Z,75.40
2018-08-12T01:38:56.050Z,75.60
2018-08-12T01:39:59.907Z,75.80
2018-08-12T01:41:03.823Z,75.80
2018-08-12T01:42:07.572Z,75.60
2018-08-12T01:43:11.240Z,75.50
2018-08-12T01:44:14.735Z,75.40
2018-08-12T01:45:20.080Z,75.50
2018-08-12T01:46:23.858Z,75.30
2018-08-12T01:47:27.997Z,75.30
2018-08-12T01:49:42.860Z,75.30
2018-08-12T01:50:46.271Z,75.30
2018-08-12T01:51:50.125Z,75.20
2018-08-12T01:52:53.676Z,74.90
2018-08-12T01:53:57.139Z,74.80
2018-08-12T01:55:00.855Z,74.90
2018-08-12T01:56:04.406Z,75.10
2018-08-12T01:57:07.896Z,75.20
2018-08-12T01:58:11.353Z,75.00
2018-08-12T01:59:14.870Z,75.10
2018-08-12T02:00:20.141Z,74.90
2018-08-12T02:01:23.606Z,75.00
2018-08-12T02:02:27.252Z,74.90
2018-08-12T02:03:30.915Z,74.70
2018-08-12T02:04:34.351Z,75.00
2018-08-12T02:05:38.124Z,75.00
2018-08-12T02:06:41.516Z,75.00
2018-08-12T02:07:45.249Z,74.90
2018-08-12T02:08:48.891Z,75.10
2018-08-12T02:09:52.333Z,74.90
2018-08-12T02:10:55.755Z,74.90
2018-08-12T02:11:59.198Z,75.60
2018-08-12T02:13:02.831Z,74.90
2018-08-12T02:14:06.719Z,74.70
2018-08-12T02:15:11.306Z,74.80
2018-08-12T02:16:14.762Z,74.90
2018-08-12T02:17:18.322Z,74.50
2018-08-12T02:18:21.785Z,74.60
2018-08-12T02:19:25.348Z,74.60
2018-08-12T02:20:29.132Z,74.80
2018-08-12T02:21:32.717Z,74.80
2018-08-12T02:22:36.814Z,74.70
2018-08-12T02:23:40.175Z,75.20
2018-08-12T02:24:43.773Z,74.90
2018-08-12T02:25:47.206Z,74.70
2018-08-12T02:26:50.838Z,74.70
2018-08-12T02:27:54.276Z,74.50
2018-08-12T02:28:57.698Z,75.20
2018-08-12T02:30:01.239Z,74.30
2018-08-12T02:31:04.837Z,74.50
2018-08-12T02:32:08.360Z,74.40
2018-08-12T02:33:11.942Z,74.50
2018-08-12T02:34:15.375Z,74.50
2018-08-12T02:35:19.043Z,74.60
2018-08-12T02:36:22.645Z,74.50
2018-08-12T02:37:26.175Z,74.40
2018-08-12T02:38:29.553Z,74.70
2018-08-12T02:39:32.971Z,74.70
2018-08-12T02:40:36.444Z,74.60
2018-08-12T02:41:40.331Z,74.60
2018-08-12T02:42:43.717Z,74.50
2018-08-12T02:43:47.331Z,74.50
2018-08-12T02:44:50.934Z,74.70
2018-08-12T02:45:54.494Z,74.90
2018-08-12T02:46:57.908Z,74.70
2018-08-12T02:48:01.368Z,74.60
2018-08-12T02:49:05.275Z,74.90
2018-08-12T02:50:08.878Z,74.60
2018-08-12T02:51:12.570Z,74.40
2018-08-12T02:52:22.683Z,74.40
2018-08-12T02:53:26.020Z,74.40
2018-08-12T02:54:29.760Z,74.40
2018-08-12T02:55:33.235Z,74.30
2018-08-12T02:56:36.661Z,74.40
2018-08-12T02:57:40.111Z,74.30
2018-08-12T02:58:43.667Z,74.30
2018-08-12T02:59:47.307Z,74.50
2018-08-12T03:00:50.756Z,74.30
2018-08-12T03:01:54.574Z,74.30
2018-08-12T03:02:58.035Z,74.40
2018-08-12T03:04:01.856Z,74.60
2018-08-12T03:05:05.490Z,75.10
2018-08-12T03:06:09.089Z,74.90
2018-08-12T03:07:13.499Z,74.70
2018-08-12T03:08:16.942Z,74.50
2018-08-12T03:09:20.654Z,74.50
2018-08-12T03:10:24.111Z,74.50
2018-08-12T03:11:27.538Z,74.40
2018-08-12T03:12:31.147Z,74.50
2018-08-12T03:13:34.602Z,74.50
2018-08-12T03:14:38.027Z,74.60
2018-08-12T03:15:41.477Z,74.60
2018-08-12T03:16:45.074Z,74.80
2018-08-12T03:17:48.594Z,74.70
2018-08-12T03:18:52.258Z,74.70
2018-08-12T03:19:55.962Z,74.60
2018-08-12T03:20:59.879Z,74.80
2018-08-12T03:22:03.480Z,74.90
2018-08-12T03:23:07.159Z,74.90
2018-08-12T03:24:10.872Z,75.10
2018-08-12T03:25:16.276Z,75.10
2018-08-12T03:26:19.707Z,75.10
2018-08-12T03:27:23.271Z,75.10
2018-08-12T03:28:26.748Z,75.00
2018-08-12T03:29:30.425Z,75.00
2018-08-12T03:30:34.214Z,75.00
2018-08-12T03:31:37.808Z,76.10
2018-08-12T03:32:41.482Z,75.30
2018-08-12T03:33:44.894Z,75.40
2018-08-12T03:34:48.259Z,75.60
2018-08-12T03:35:51.781Z,75.70
2018-08-12T03:36:56.204Z,75.50
2018-08-12T03:38:00.096Z,75.50
2018-08-12T03:39:06.280Z,75.40
2018-08-12T03:40:12.842Z,75.40
2018-08-12T03:41:16.300Z,75.50
2018-08-12T03:42:19.820Z,75.60
2018-08-12T03:43:23.247Z,75.70
2018-08-12T03:44:27.119Z,75.70
2018-08-12T03:45:30.896Z,75.70
2018-08-12T03:46:34.496Z,75.80
2018-08-12T03:47:38.285Z,75.60
2018-08-12T03:48:41.730Z,75.70
2018-08-12T03:49:45.225Z,75.80
2018-08-12T03:50:48.811Z,75.70
2018-08-12T03:51:52.214Z,75.60
2018-08-12T03:52:55.926Z,75.70
2018-08-12T03:53:59.747Z,75.80
2018-08-12T03:55:05.896Z,75.90
2018-08-12T03:56:09.878Z,75.60
2018-08-12T03:57:13.436Z,75.70
2018-08-12T03:58:16.861Z,75.70
2018-08-12T03:59:20.320Z,75.70
2018-08-12T04:00:24.871Z,75.60
2018-08-12T04:01:29.391Z,75.50
2018-08-12T04:02:33.018Z,75.40
2018-08-12T04:03:38.086Z,75.40
2018-08-12T04:04:41.475Z,75.80
2018-08-12T04:05:45.031Z,75.60
2018-08-12T04:06:49.719Z,75.60
2018-08-12T04:07:53.133Z,75.40
2018-08-12T04:08:56.593Z,75.50
2018-08-12T04:10:00.006Z,75.40
2018-08-12T04:11:03.525Z,75.50
2018-08-12T04:12:07.576Z,75.50
2018-08-12T04:13:11.302Z,75.40
2018-08-12T04:14:14.980Z,75.20
2018-08-12T04:15:18.328Z,75.20
2018-08-12T04:16:21.712Z,76.00
2018-08-12T04:17:25.330Z,75.20
2018-08-12T04:18:28.676Z,75.30
2018-08-12T04:19:32.318Z,75.20
2018-08-12T04:20:35.938Z,75.20
2018-08-12T04:21:39.393Z,75.20
2018-08-12T04:22:43.254Z,75.20
2018-08-12T04:23:46.650Z,75.10
2018-08-12T04:24:50.028Z,75.20
2018-08-12T04:25:53.433Z,75.60
2018-08-12T04:26:56.873Z,75.40
2018-08-12T04:28:00.338Z,75.60
2018-08-12T04:29:03.876Z,75.60
2018-08-12T04:30:09.630Z,75.50
2018-08-12T04:31:13.085Z,75.50
2018-08-12T04:32:16.493Z,75.60
2018-08-12T04:33:20.109Z,75.60
2018-08-12T04:34:23.745Z,75.30
2018-08-12T04:35:27.829Z,75.40
2018-08-12T04:36:31.365Z,75.10
2018-08-12T04:37:34.862Z,75.50
2018-08-12T04:38:38.384Z,74.80
2018-08-12T04:39:41.805Z,75.20
2018-08-12T04:40:45.307Z,75.10
2018-08-12T04:41:48.895Z,74.90
2018-08-12T04:42:52.414Z,74.80
2018-08-12T04:43:56.050Z,74.90
2018-08-12T04:44:59.561Z,74.80
2018-08-12T04:46:03.294Z,74.70
2018-08-12T04:47:06.696Z,74.80
2018-08-12T04:48:10.497Z,74.50
2018-08-12T04:49:14.112Z,74.40
2018-08-12T04:50:17.599Z,74.40
2018-08-12T04:51:21.159Z,74.40
2018-08-12T04:52:24.574Z,74.30
2018-08-12T04:53:27.932Z,74.40
2018-08-12T04:54:31.663Z,74.50
2018-08-12T04:55:35.100Z,74.50
2018-08-12T04:56:38.630Z,74.60
2018-08-12T04:57:42.122Z,74.50
2018-08-12T04:58:45.707Z,74.40
2018-08-12T04:59:49.379Z,74.40
2018-08-12T05:00:52.797Z,74.30
2018-08-12T05:01:56.508Z,74.30
2018-08-12T05:02:59.932Z,74.30
2018-08-12T05:04:03.573Z,74.00
2018-08-12T05:05:08.051Z,73.80
2018-08-12T05:06:11.526Z,73.50
2018-08-12T05:07:14.968Z,73.50
2018-08-12T05:08:18.627Z,73.40
2018-08-12T05:09:21.954Z,73.50
2018-08-12T05:10:25.514Z,73.40
2018-08-12T05:11:29.089Z,73.50
2018-08-12T05:12:32.875Z,73.10
2018-08-12T05:13:36.627Z,73.00
2018-08-12T05:14:40.077Z,72.60
2018-08-12T05:15:43.452Z,72.50
2018-08-12T05:16:46.947Z,72.40
2018-08-12T05:17:50.450Z,73.20
2018-08-12T05:18:54.092Z,72.60
2018-08-12T05:19:57.853Z,72.40
2018-08-12T05:21:04.273Z,72.50
2018-08-12T05:22:07.801Z,72.80
2018-08-12T05:23:11.705Z,72.70
2018-08-12T05:24:15.124Z,72.70
2018-08-12T05:25:18.597Z,72.60
2018-08-12T05:26:22.406Z,72.10
2018-08-12T05:27:25.820Z,72.10
2018-08-12T05:28:29.217Z,72.20
2018-08-12T05:29:32.607Z,72.10
2018-08-12T05:30:35.939Z,72.10
2018-08-12T05:31:39.706Z,71.90
2018-08-12T05:32:43.171Z,71.70
2018-08-12T05:33:46.881Z,71.80
2018-08-12T05:34:50.294Z,71.70
2018-08-12T05:35:53.742Z,71.60
2018-08-12T05:36:57.328Z,71.60
2018-08-12T05:38:01.018Z,71.40
2018-08-12T05:39:09.593Z,71.30
2018-08-12T05:40:13.265Z,71.70
2018-08-12T05:41:16.899Z,70.70
2018-08-12T05:42:20.378Z,70.70
2018-08-12T05:43:24.210Z,70.90
2018-08-12T05:44:27.721Z,70.50
2018-08-12T05:45:31.241Z,70.80
2018-08-12T05:46:34.753Z,70.50
2018-08-12T05:47:39.018Z,70.10
2018-08-12T05:48:42.452Z,69.50
2018-08-12T05:49:45.880Z,68.90
2018-08-12T05:50:49.476Z,68.60
2018-08-12T05:51:52.869Z,69.40
2018-08-12T05:52:56.497Z,68.20
2018-08-12T05:54:00.120Z,68.30
2018-08-12T05:55:04.337Z,68.20
2018-08-12T05:56:07.872Z,67.80
2018-08-12T05:57:11.902Z,68.10
2018-08-12T05:58:15.465Z,67.80
2018-08-12T05:59:19.040Z,67.70
2018-08-12T06:00:22.998Z,67.00
2018-08-12T06:01:26.936Z,66.80
2018-08-12T06:02:30.651Z,66.70
2018-08-12T06:03:35.390Z,66.20
2018-08-12T06:04:39.520Z,66.30
2018-08-12T06:05:43.285Z,66.90
2018-08-12T06:06:46.984Z,65.90
2018-08-12T06:07:50.543Z,66.30
2018-08-12T06:08:55.425Z,66.00
2018-08-12T06:09:59.179Z,66.00
2018-08-12T06:11:02.915Z,65.20
2018-08-12T06:12:06.900Z,65.70
2018-08-12T06:13:10.328Z,65.20
2018-08-12T06:14:13.938Z,65.00
2018-08-12T06:15:18.011Z,65.40
2018-08-12T06:16:21.431Z,65.20
2018-08-12T06:17:25.303Z,64.10
2018-08-12T06:18:28.863Z,64.50
2018-08-12T06:19:32.576Z,64.90
2018-08-12T06:20:36.015Z,65.10
2018-08-12T06:21:39.435Z,64.90
2018-08-12T06:22:42.918Z,64.80
2018-08-12T06:23:46.403Z,65.00
2018-08-12T06:24:51.111Z,64.70
2018-08-12T06:25:56.880Z,64.50
2018-08-12T06:27:00.278Z,64.70
2018-08-12T06:28:04.273Z,64.60
2018-08-12T06:29:07.852Z,63.00
2018-08-12T06:30:15.139Z,63.20
2018-08-12T06:31:18.703Z,63.70
2018-08-12T06:32:22.387Z,64.10
2018-08-12T06:33:25.919Z,64.10
2018-08-12T06:34:29.358Z,63.70
2018-08-12T06:35:32.804Z,63.80
2018-08-12T06:36:36.222Z,63.30
2018-08-12T06:37:39.699Z,62.90
2018-08-12T06:38:43.255Z,63.40
2018-08-12T06:39:46.986Z,63.40
2018-08-12T06:40:50.674Z,63.30
2018-08-12T06:41:54.370Z,63.70
2018-08-12T06:42:57.785Z,63.40
2018-08-12T06:44:01.170Z,63.20
2018-08-12T06:45:09.748Z,63.30
2018-08-12T06:46:13.251Z,62.40
2018-08-12T06:47:18.142Z,61.80
2018-08-12T06:48:21.643Z,61.70
2018-08-12T06:49:25.475Z,61.50
2018-08-12T06:50:28.899Z,61.80
2018-08-12T06:51:32.311Z,61.60
2018-08-12T06:52:36.615Z,61.30
2018-08-12T06:53:40.425Z,61.50
2018-08-12T06:54:43.998Z,61.20
2018-08-12T06:55:47.398Z,60.70
2018-08-12T06:56:50.998Z,60.70
2018-08-12T06:57:54.542Z,60.40
2018-08-12T06:58:57.969Z,59.90
2018-08-12T07:00:01.636Z,59.40
2018-08-12T07:01:06.309Z,59.40
2018-08-12T07:02:11.163Z,59.60
2018-08-12T07:03:14.539Z,59.80
2018-08-12T07:04:18.377Z,59.80
2018-08-12T07:05:21.860Z,60.00
2018-08-12T07:06:25.982Z,59.90
2018-08-12T07:07:29.715Z,59.90
2018-08-12T07:08:33.434Z,60.20
2018-08-12T07:09:36.892Z,59.80
2018-08-12T07:10:40.390Z,59.80
2018-08-12T07:11:43.786Z,59.80
2018-08-12T07:12:47.287Z,59.90
2018-08-12T07:13:51.288Z,59.90
2018-08-12T07:14:54.851Z,60.10
2018-08-12T07:15:58.435Z,60.40
2018-08-12T07:17:01.855Z,60.40
2018-08-12T07:18:05.275Z,60.60
2018-08-12T07:19:08.867Z,60.40
2018-08-12T07:20:13.214Z,60.70
2018-08-12T07:21:16.981Z,60.30
2018-08-12T07:22:20.611Z,59.90
2018-08-12T07:23:24.247Z,59.80
2018-08-12T07:24:28.164Z,59.80
2018-08-12T07:25:31.703Z,60.20
2018-08-12T07:26:35.174Z,59.80
2018-08-12T07:27:40.121Z,59.60
2018-08-12T07:28:43.762Z,60.00
2018-08-12T07:29:47.313Z,58.50
2018-08-12T07:30:51.112Z,58.70
2018-08-12T07:31:54.535Z,59.10
2018-08-12T07:32:57.991Z,59.10
2018-08-12T07:34:01.672Z,58.70
2018-08-12T07:35:06.119Z,59.00
2018-08-12T07:36:09.900Z,59.90
2018-08-12T07:37:13.549Z,59.00
2018-08-12T07:38:17.000Z,59.60
2018-08-12T07:39:20.791Z,58.70
2018-08-12T07:40:24.261Z,58.20
2018-08-12T07:41:27.848Z,58.40
2018-08-12T07:42:31.493Z,58.40
2018-08-12T07:43:34.885Z,58.80
2018-08-12T07:44:38.947Z,57.70
2018-08-12T07:45:42.543Z,57.50
2018-08-12T07:46:46.164Z,57.20
2018-08-12T07:47:49.846Z,56.90
2018-08-12T07:48:53.471Z,56.90
2018-08-12T07:49:57.569Z,56.80
2018-08-12T07:51:01.053Z,56.90
2018-08-12T07:52:05.478Z,56.70
2018-08-12T07:53:09.348Z,57.20
2018-08-12T07:54:13.248Z,56.30
2018-08-12T07:55:16.765Z,55.80
2018-08-12T07:56:20.406Z,55.70
2018-08-12T07:57:23.729Z,55.00
2018-08-12T07:58:27.329Z,57.30
2018-08-12T07:59:30.787Z,56.20
2018-08-12T08:00:34.229Z,55.60
2018-08-12T08:01:37.853Z,54.30
2018-08-12T08:02:41.521Z,54.20
2018-08-12T08:03:45.107Z,55.70
2018-08-12T08:04:48.668Z,54.90
2018-08-12T08:05:52.353Z,55.30
2018-08-12T08:06:56.440Z,53.90
2018-08-12T08:08:00.084Z,53.50
2018-08-12T08:09:05.355Z,54.30
2018-08-12T08:10:13.800Z,54.20
2018-08-12T08:11:17.224Z,53.60
2018-08-12T08:12:20.560Z,54.10
2018-08-12T08:13:24.451Z,54.10
2018-08-12T08:14:27.903Z,54.40
2018-08-12T08:15:31.486Z,55.00
2018-08-12T08:16:34.884Z,53.70
2018-08-12T08:17:39.033Z,53.10
2018-08-12T08:18:42.867Z,53.60
2018-08-12T08:19:46.247Z,53.30
2018-08-12T08:20:49.739Z,54.30
2018-08-12T08:21:53.205Z,54.80
2018-08-12T08:22:57.002Z,53.00
2018-08-12T08:24:00.429Z,53.90
2018-08-12T08:25:04.460Z,53.80
2018-08-12T08:26:07.895Z,54.20
2018-08-12T08:27:11.651Z,54.10
2018-08-12T08:28:15.339Z,53.30
2018-08-12T08:29:19.139Z,53.60
2018-08-12T08:30:22.537Z,52.90
2018-08-12T08:31:26.071Z,53.50
2018-08-12T08:32:29.511Z,53.90
2018-08-12T08:33:32.968Z,53.80
2018-08-12T08:34:36.776Z,53.20
2018-08-12T08:35:40.556Z,52.40
2018-08-12T08:36:44.363Z,53.10
2018-08-12T08:37:47.905Z,53.70
2018-08-12T08:38:51.382Z,53.30
2018-08-12T08:39:54.802Z,52.60
2018-08-12T08:40:58.335Z,51.30
2018-08-12T08:42:01.916Z,51.40
2018-08-12T08:43:05.478Z,51.20
2018-08-12T08:44:09.374Z,51.30
2018-08-12T08:45:19.346Z,52.00
2018-08-12T08:46:22.891Z,52.80
2018-08-12T08:47:26.392Z,52.10
2018-08-12T08:48:30.245Z,51.50
2018-08-12T08:49:33.884Z,52.00
2018-08-12T08:50:37.625Z,52.00
2018-08-12T08:51:41.193Z,52.10
2018-08-12T08:52:47.988Z,52.30
2018-08-12T08:53:51.598Z,51.40
2018-08-12T08:54:55.113Z,50.80
2018-08-12T08:55:58.764Z,50.80
2018-08-12T08:57:02.307Z,51.60
2018-08-12T08:58:05.966Z,51.00
2018-08-12T08:59:09.531Z,51.50
2018-08-12T09:00:17.097Z,51.10
2018-08-12T09:01:20.930Z,51.50
2018-08-12T09:02:24.581Z,51.40
2018-08-12T09:03:28.287Z,50.10
2018-08-12T09:04:31.887Z,49.10
2018-08-12T09:05:35.257Z,47.70
2018-08-12T09:06:38.678Z,47.90
2018-08-12T09:07:42.479Z,48.00
2018-08-12T09:08:46.282Z,48.90
2018-08-12T09:09:49.390Z,49.20
2018-08-12T09:10:52.756Z,49.30
2018-08-12T09:11:56.162Z,48.80
2018-08-12T09:12:59.964Z,48.70
2018-08-12T09:14:03.979Z,48.40
2018-08-12T09:15:12.373Z,48.10
2018-08-12T09:16:15.949Z,48.00
2018-08-12T09:17:19.493Z,49.30
2018-08-12T09:18:23.279Z,49.50
2018-08-12T09:19:27.158Z,49.60
2018-08-12T09:20:30.902Z,47.50
2018-08-12T09:21:34.500Z,47.50
2018-08-12T09:22:37.964Z,46.40
2018-08-12T09:23:41.292Z,47.80
2018-08-12T09:24:44.772Z,46.60
2018-08-12T09:25:48.273Z,45.00
2018-08-12T09:26:51.682Z,45.40
2018-08-12T09:27:55.172Z,44.70
2018-08-12T09:28:58.759Z,44.20
2018-08-12T09:30:02.732Z,43.00
2018-08-12T09:31:06.850Z,43.90
2018-08-12T09:32:10.467Z,44.20
2018-08-12T09:33:14.527Z,44.10
2018-08-12T09:34:18.196Z,44.10
2018-08-12T09:35:22.023Z,44.60
2018-08-12T09:36:25.695Z,45.00
2018-08-12T09:37:29.288Z,45.40
2018-08-12T09:38:32.685Z,45.90
2018-08-12T09:39:36.702Z,45.20
2018-08-12T09:40:40.198Z,44.90
2018-08-12T09:41:43.654Z,45.50
2018-08-12T09:42:48.352Z,45.00
2018-08-12T09:43:51.997Z,45.10
2018-08-12T09:44:55.619Z,44.90
2018-08-12T09:45:59.060Z,45.30
2018-08-12T09:47:03.169Z,44.70
2018-08-12T09:48:06.914Z,45.00
2018-08-12T09:49:10.304Z,44.70
2018-08-12T09:50:16.462Z,44.60
2018-08-12T09:51:20.998Z,44.70
2018-08-12T09:52:24.846Z,46.50
2018-08-12T09:53:28.373Z,46.90
2018-08-12T09:54:32.060Z,47.20
2018-08-12T09:55:35.494Z,45.80
2018-08-12T09:56:38.935Z,45.30
2018-08-12T09:57:42.498Z,46.60
2018-08-12T09:58:46.467Z,46.00
2018-08-12T09:59:50.135Z,46.20
2018-08-12T10:00:53.738Z,46.00
2018-08-12T10:01:57.588Z,45.90
2018-08-12T10:03:01.147Z,46.30
2018-08-12T10:04:04.589Z,46.90
2018-08-12T10:05:08.315Z,47.60
2018-08-12T10:06:11.707Z,46.50
2018-08-12T10:07:15.264Z,47.40
2018-08-12T10:08:18.684Z,46.10
2018-08-12T10:09:22.130Z,46.20
2018-08-12T10:10:25.942Z,46.70
2018-08-12T10:11:29.375Z,46.40
2018-08-12T10:12:32.823Z,44.00
2018-08-12T10:13:36.551Z,44.20
2018-08-12T10:14:40.179Z,45.40
2018-08-12T10:15:44.041Z,45.40
2018-08-12T10:16:48.021Z,44.90
2018-08-12T10:17:53.454Z,43.90
2018-08-12T10:18:57.183Z,44.10
2018-08-12T10:20:00.595Z,44.90
2018-08-12T10:21:04.267Z,44.30
2018-08-12T10:22:08.094Z,44.90
2018-08-12T10:23:11.708Z,44.60
2018-08-12T10:24:15.406Z,45.90
2018-08-12T10:25:19.103Z,44.30
2018-08-12T10:26:22.913Z,44.50
2018-08-12T10:27:26.760Z,45.50
2018-08-12T10:28:30.374Z,45.40
2018-08-12T10:29:34.572Z,46.50
2018-08-12T10:30:38.030Z,46.20
2018-08-12T10:31:41.859Z,45.70
2018-08-12T10:32:45.284Z,46.30
2018-08-12T10:33:48.867Z,44.40
2018-08-12T10:34:52.452Z,45.70
2018-08-12T10:35:55.831Z,44.20
2018-08-12T10:36:59.237Z,44.00
2018-08-12T10:38:02.783Z,44.70
2018-08-12T10:39:08.417Z,44.90
2018-08-12T10:40:16.717Z,44.90
2018-08-12T10:41:20.324Z,44.90
2018-08-12T10:42:23.785Z,44.30
2018-08-12T10:43:27.599Z,43.90
2018-08-12T10:44:31.407Z,43.70
2018-08-12T10:45:34.919Z,43.80
2018-08-12T10:46:38.613Z,45.00
2018-08-12T10:47:43.177Z,43.90
2018-08-12T10:48:47.263Z,43.40
2018-08-12T10:49:50.875Z,44.30
2018-08-12T10:50:54.597Z,43.60
2018-08-12T10:51:58.150Z,44.20
2018-08-12T10:53:01.880Z,44.30
2018-08-12T10:54:05.891Z,44.70
2018-08-12T10:55:10.459Z,43.80
2018-08-12T10:56:13.991Z,44.20
2018-08-12T10:57:17.667Z,44.40
2018-08-12T10:58:21.408Z,44.10
2018-08-12T10:59:25.253Z,44.90
2018-08-12T11:00:32.671Z,45.70
2018-08-12T11:01:36.389Z,45.90
2018-08-12T11:02:40.347Z,44.80
2018-08-12T11:03:43.932Z,43.90
2018-08-12T11:04:47.359Z,43.50
2018-08-12T11:05:51.461Z,44.40
2018-08-12T11:06:55.192Z,43.00
2018-08-12T11:07:59.389Z,44.00
2018-08-12T11:09:03.912Z,45.10
2018-08-12T11:10:08.654Z,45.80
2018-08-12T11:11:12.190Z,45.90
2018-08-12T11:12:15.664Z,44.80
2018-08-12T11:13:19.444Z,44.70
2018-08-12T11:14:22.999Z,45.10
2018-08-12T11:15:26.756Z,45.10
2018-08-12T11:16:30.263Z,45.50
2018-08-12T11:17:33.776Z,43.80
2018-08-12T11:18:37.407Z,44.60
2018-08-12T11:19:40.933Z,42.90
2018-08-12T11:20:44.781Z,44.40
2018-08-12T11:21:48.355Z,43.50
2018-08-12T11:22:51.863Z,43.50
2018-08-12T11:23:55.461Z,43.60
2018-08-12T11:24:58.946Z,43.90
2018-08-12T11:26:02.700Z,44.60
2018-08-12T11:27:06.368Z,45.20
2018-08-12T11:28:09.902Z,46.50
2018-08-12T11:29:13.494Z,45.20
2018-08-12T11:30:18.014Z,46.30
2018-08-12T11:31:21.769Z,47.10
2018-08-12T11:32:25.396Z,47.20
2018-08-12T11:33:28.948Z,45.80
2018-08-12T11:34:32.525Z,45.90
2018-08-12T11:35:36.168Z,46.00
2018-08-12T11:36:39.915Z,47.00
2018-08-12T11:37:44.274Z,46.80
2018-08-12T11:38:47.970Z,46.80
2018-08-12T11:39:51.474Z,48.80
2018-08-12T11:40:54.941Z,47.50
2018-08-12T11:41:58.430Z,47.30
2018-08-12T11:43:02.126Z,46.90
2018-08-12T11:44:05.752Z,47.70
2018-08-12T11:45:12.877Z,47.50
2018-08-12T11:46:16.328Z,46.00
2018-08-12T11:47:19.806Z,46.60
2018-08-12T11:48:23.358Z,46.40
2018-08-12T11:49:26.825Z,45.30
2018-08-12T11:50:30.539Z,45.20
2018-08-12T11:51:33.976Z,45.60
2018-08-12T11:52:37.716Z,45.00
2018-08-12T11:53:41.184Z,44.80
2018-08-12T11:54:45.104Z,45.60
2018-08-12T11:55:48.726Z,45.90
2018-08-12T11:56:52.614Z,45.50
2018-08-12T11:57:56.296Z,45.90
2018-08-12T11:58:59.867Z,45.50
2018-08-12T12:00:04.996Z,45.20
2018-08-12T12:01:08.407Z,45.60
2018-08-12T12:02:11.918Z,46.70
2018-08-12T12:03:15.490Z,46.60
2018-08-12T12:04:19.271Z,45.70
2018-08-12T12:05:22.703Z,45.30
2018-08-12T12:06:26.190Z,45.00
2018-08-12T12:07:29.672Z,44.80
2018-08-12T12:08:33.370Z,44.60
2018-08-12T12:09:38.869Z,44.00
2018-08-12T12:10:42.356Z,44.50
2018-08-12T12:11:52.436Z,45.20
2018-08-12T12:12:56.093Z,44.60
2018-08-12T12:13:59.611Z,45.00
2018-08-12T12:15:03.456Z,45.60
2018-08-12T12:16:07.531Z,46.70
2018-08-12T12:17:11.180Z,45.10
2018-08-12T12:18:14.819Z,45.10
2018-08-12T12:19:18.807Z,44.30
2018-08-12T12:20:22.348Z,44.30
2018-08-12T12:21:27.042Z,45.30
2018-08-12T12:22:30.702Z,45.00
2018-08-12T12:23:34.119Z,44.30
2018-08-12T12:24:37.925Z,44.40
2018-08-12T12:25:42.139Z,44.70
2018-08-12T12:26:45.695Z,44.70
2018-08-12T12:27:49.160Z,43.50
2018-08-12T12:28:52.497Z,44.10
2018-08-12T12:29:55.881Z,45.20
2018-08-12T12:30:59.530Z,46.00
2018-08-12T12:32:03.100Z,45.20
2018-08-12T12:33:06.740Z,45.60
2018-08-12T12:34:10.303Z,44.70
2018-08-12T12:35:13.748Z,46.00
2018-08-12T12:36:17.144Z,45.30
2018-08-12T12:37:20.641Z,45.10
2018-08-12T12:38:24.037Z,45.20
2018-08-12T12:39:27.513Z,44.60
2018-08-12T12:40:31.218Z,43.50
2018-08-12T12:41:34.723Z,43.50
2018-08-12T12:42:38.572Z,43.90
2018-08-12T12:43:42.323Z,44.80
2018-08-12T12:44:45.818Z,46.30
2018-08-12T12:45:49.288Z,46.50
2018-08-12T12:46:52.891Z,46.80
2018-08-12T12:47:56.334Z,45.90
2018-08-12T12:48:59.796Z,45.80
2018-08-12T12:50:05.206Z,45.20
2018-08-12T12:51:08.897Z,45.00
2018-08-12T12:52:12.348Z,44.70
2018-08-12T12:53:15.743Z,45.30
2018-08-12T12:54:19.178Z,44.10
2018-08-12T12:55:24.145Z,44.40
2018-08-12T12:56:27.978Z,44.40
2018-08-12T12:57:31.767Z,44.90
2018-08-12T12:58:35.741Z,46.00
2018-08-12T12:59:39.772Z,44.70
2018-08-12T13:00:43.334Z,44.90
2018-08-12T13:01:46.803Z,45.40
2018-08-12T13:02:51.050Z,46.50
2018-08-12T13:03:54.918Z,45.40
2018-08-12T13:04:59.367Z,45.20
2018-08-12T13:06:03.321Z,45.30
2018-08-12T13:07:06.717Z,44.90
2018-08-12T13:08:10.536Z,45.30
2018-08-12T13:09:14.103Z,45.40
2018-08-12T13:10:18.589Z,45.20
2018-08-12T13:11:22.612Z,44.90
2018-08-12T13:12:26.433Z,45.60
2018-08-12T13:13:29.904Z,46.30
2018-08-12T13:14:33.646Z,46.30
2018-08-12T13:15:37.271Z,46.30
2018-08-12T13:16:41.250Z,45.30
2018-08-12T13:17:45.806Z,45.50
2018-08-12T13:18:50.345Z,45.30
2018-08-12T13:19:54.055Z,44.40
2018-08-12T13:20:58.272Z,45.70
2018-08-12T13:22:02.060Z,45.00
2018-08-12T13:23:06.302Z,45.40
2018-08-12T13:24:10.067Z,45.40
2018-08-12T13:25:16.241Z,45.00
2018-08-12T13:26:20.029Z,44.90
2018-08-12T13:27:23.639Z,44.80
2018-08-12T13:28:27.494Z,45.30
2018-08-12T13:29:31.106Z,45.00
2018-08-12T13:30:34.965Z,44.70
2018-08-12T13:31:38.458Z,46.10
2018-08-12T13:32:43.255Z,47.10
2018-08-12T13:33:46.925Z,45.40
2018-08-12T13:34:50.308Z,44.80
2018-08-12T13:35:54.082Z,45.30
2018-08-12T13:36:57.802Z,45.90
2018-08-12T13:38:04.090Z,45.30
2018-08-12T13:39:11.598Z,45.30
2018-08-12T13:40:17.660Z,45.30
2018-08-12T13:41:21.430Z,45.90
2018-08-12T13:42:25.027Z,44.90